DKH3062 ZGDY-ZPPP
Flight info
| Callsign | DKH3062 |
|---|---|
| Flight time | N/A |
| Altitude | 32100 |
| Route | DYG W140 HUY A581 QNX W136 XISLI XISLI9E |
| Aircraft | A320/M-SDE3FGHIRWY/LB1 |
Departure
| Time | 2026-04-28 11:45 |
|---|---|
| Airport | Zhangjiajie Hehua International Airport (ZGDY) |
Arrival
| Time | N/A |
|---|---|
| Airport | Kunming Changshui International Airport (ZPPP) |
| Time | Latitude | Longitude | Altitude | Speed | Heading |
|---|---|---|---|---|---|
| 2026-04-28 11:45 | 29.11384 | 110.32161 | 20005 ft | 344 kts | 229° |
| 2026-04-28 11:45 | 29.09760 | 110.30124 | 20117 ft | 358 kts | 229° |
| 2026-04-28 11:45 | 29.08031 | 110.27947 | 20231 ft | 372 kts | 229° |
| 2026-04-28 11:46 | 29.06270 | 110.25721 | 20351 ft | 384 kts | 229° |
| 2026-04-28 11:46 | 29.04452 | 110.23419 | 20471 ft | 396 kts | 229° |
| 2026-04-28 11:46 | 29.02608 | 110.21086 | 20590 ft | 405 kts | 229° |
| 2026-04-28 11:46 | 29.00701 | 110.18671 | 20708 ft | 414 kts | 229° |
| 2026-04-28 11:47 | 28.98755 | 110.16212 | 20827 ft | 421 kts | 229° |
| 2026-04-28 11:47 | 28.96777 | 110.13715 | 20948 ft | 427 kts | 229° |
| 2026-04-28 11:47 | 28.94770 | 110.11185 | 21073 ft | 432 kts | 229° |
| 2026-04-28 11:47 | 28.92741 | 110.08634 | 21249 ft | 436 kts | 229° |
| 2026-04-28 11:48 | 28.90833 | 110.05943 | 21463 ft | 437 kts | 236° |
| 2026-04-28 11:48 | 28.89226 | 110.02995 | 21691 ft | 438 kts | 239° |
| 2026-04-28 11:48 | 28.87619 | 109.99979 | 21924 ft | 440 kts | 239° |
| 2026-04-28 11:48 | 28.86030 | 109.96997 | 22149 ft | 440 kts | 239° |
| 2026-04-28 11:49 | 28.84435 | 109.94011 | 22387 ft | 441 kts | 239° |
| 2026-04-28 11:49 | 28.82855 | 109.91062 | 22607 ft | 442 kts | 238° |
| 2026-04-28 11:49 | 28.81247 | 109.88068 | 22820 ft | 443 kts | 238° |
| 2026-04-28 11:49 | 28.79635 | 109.85071 | 23023 ft | 444 kts | 238° |
| 2026-04-28 11:50 | 28.78018 | 109.82071 | 23206 ft | 445 kts | 238° |
| 2026-04-28 11:50 | 28.76393 | 109.79062 | 23379 ft | 446 kts | 238° |
| 2026-04-28 11:50 | 28.74762 | 109.76042 | 23502 ft | 448 kts | 239° |
| 2026-04-28 11:50 | 28.73128 | 109.73006 | 23639 ft | 450 kts | 239° |
| 2026-04-28 11:51 | 28.71491 | 109.69965 | 23772 ft | 451 kts | 239° |
| 2026-04-28 11:51 | 28.69854 | 109.66920 | 23956 ft | 450 kts | 239° |
| 2026-04-28 11:51 | 28.68217 | 109.63885 | 24157 ft | 449 kts | 238° |
| 2026-04-28 11:51 | 28.66579 | 109.60855 | 24366 ft | 449 kts | 238° |
| 2026-04-28 11:52 | 28.64944 | 109.57834 | 24562 ft | 448 kts | 238° |
| 2026-04-28 11:52 | 28.63311 | 109.54820 | 24793 ft | 446 kts | 238° |
| 2026-04-28 11:52 | 28.61686 | 109.51818 | 25013 ft | 445 kts | 238° |
| 2026-04-28 11:52 | 28.60062 | 109.48817 | 25225 ft | 445 kts | 238° |
| 2026-04-28 11:53 | 28.58442 | 109.45822 | 25448 ft | 444 kts | 238° |
| 2026-04-28 11:53 | 28.56997 | 109.42717 | 25640 ft | 445 kts | 243° |
| 2026-04-28 11:53 | 28.55624 | 109.39566 | 25847 ft | 445 kts | 243° |
| 2026-04-28 11:53 | 28.54245 | 109.36417 | 26080 ft | 444 kts | 243° |
| 2026-04-28 11:54 | 28.52825 | 109.33186 | 26313 ft | 444 kts | 243° |
| 2026-04-28 11:54 | 28.51485 | 109.30141 | 26555 ft | 443 kts | 243° |
| 2026-04-28 11:54 | 28.50105 | 109.27009 | 26810 ft | 442 kts | 243° |
| 2026-04-28 11:54 | 28.48730 | 109.23890 | 27075 ft | 441 kts | 243° |
| 2026-04-28 11:55 | 28.47357 | 109.20771 | 27347 ft | 441 kts | 243° |
| 2026-04-28 11:55 | 28.45985 | 109.17661 | 27615 ft | 440 kts | 243° |
| 2026-04-28 11:55 | 28.44632 | 109.14600 | 27879 ft | 439 kts | 243° |
| 2026-04-28 11:55 | 28.43262 | 109.11502 | 28145 ft | 438 kts | 243° |
| 2026-04-28 11:56 | 28.41891 | 109.08410 | 28405 ft | 438 kts | 243° |
| 2026-04-28 11:56 | 28.40519 | 109.05320 | 28658 ft | 438 kts | 243° |
| 2026-04-28 11:56 | 28.39144 | 109.02230 | 28935 ft | 438 kts | 243° |
| 2026-04-28 11:56 | 28.37774 | 108.99152 | 29228 ft | 437 kts | 243° |
| 2026-04-28 11:57 | 28.36406 | 108.96074 | 29526 ft | 436 kts | 243° |
| 2026-04-28 11:57 | 28.35044 | 108.93011 | 29809 ft | 435 kts | 243° |
| 2026-04-28 11:57 | 28.33680 | 108.89945 | 30102 ft | 435 kts | 243° |
| 2026-04-28 11:57 | 28.32318 | 108.86886 | 30366 ft | 434 kts | 243° |
| 2026-04-28 11:58 | 28.30961 | 108.83838 | 30620 ft | 433 kts | 243° |
| 2026-04-28 11:58 | 28.29602 | 108.80793 | 30871 ft | 432 kts | 243° |
| 2026-04-28 11:58 | 28.28246 | 108.77760 | 31143 ft | 431 kts | 243° |
| 2026-04-28 11:58 | 28.26889 | 108.74723 | 31390 ft | 431 kts | 243° |
| 2026-04-28 11:59 | 28.25535 | 108.71692 | 31635 ft | 431 kts | 243° |
| 2026-04-28 11:59 | 28.24183 | 108.68672 | 31911 ft | 429 kts | 243° |
| 2026-04-28 11:59 | 28.22831 | 108.65659 | 32098 ft | 428 kts | 243° |
| 2026-04-28 11:59 | 28.21477 | 108.62641 | 32159 ft | 431 kts | 243° |
| 2026-04-28 12:00 | 28.18746 | 108.56551 | 32157 ft | 436 kts | 243° |
| 2026-04-28 12:00 | 28.15972 | 108.50388 | 32157 ft | 442 kts | 243° |
| 2026-04-28 12:01 | 28.13164 | 108.44156 | 32152 ft | 446 kts | 243° |
| 2026-04-28 12:01 | 28.10344 | 108.37891 | 32146 ft | 446 kts | 243° |
| 2026-04-28 12:02 | 28.07521 | 108.31633 | 32140 ft | 446 kts | 243° |
| 2026-04-28 12:02 | 28.05147 | 108.26400 | 32141 ft | 446 kts | 243° |
| 2026-04-28 12:03 | 28.02332 | 108.20190 | 32151 ft | 447 kts | 243° |
| 2026-04-28 12:03 | 27.99498 | 108.13930 | 32142 ft | 447 kts | 243° |
| 2026-04-28 12:04 | 27.96189 | 108.06623 | 32149 ft | 446 kts | 243° |
| 2026-04-28 12:04 | 27.93829 | 108.01433 | 32144 ft | 446 kts | 243° |
| 2026-04-28 12:05 | 27.90993 | 107.95188 | 32144 ft | 446 kts | 243° |
| 2026-04-28 12:05 | 27.88157 | 107.88950 | 32147 ft | 446 kts | 243° |
| 2026-04-28 12:06 | 27.85311 | 107.82717 | 32150 ft | 446 kts | 243° |
| 2026-04-28 12:06 | 27.82460 | 107.76491 | 32151 ft | 446 kts | 243° |
| 2026-04-28 12:07 | 27.79615 | 107.70277 | 32141 ft | 443 kts | 243° |
| 2026-04-28 12:07 | 27.76792 | 107.64104 | 32148 ft | 442 kts | 243° |
| 2026-04-28 12:08 | 27.73969 | 107.57941 | 32147 ft | 442 kts | 243° |
| 2026-04-28 12:08 | 27.71141 | 107.51792 | 32153 ft | 441 kts | 243° |
| 2026-04-28 12:09 | 27.68308 | 107.45649 | 32157 ft | 441 kts | 243° |
| 2026-04-28 12:09 | 27.65473 | 107.39503 | 32171 ft | 442 kts | 243° |
| 2026-04-28 12:10 | 27.62643 | 107.33373 | 32170 ft | 440 kts | 243° |
| 2026-04-28 12:10 | 27.59819 | 107.27247 | 32168 ft | 440 kts | 243° |
| 2026-04-28 12:11 | 27.56993 | 107.21135 | 32152 ft | 440 kts | 243° |
| 2026-04-28 12:11 | 27.54157 | 107.15022 | 32178 ft | 441 kts | 243° |
| 2026-04-28 12:12 | 27.51315 | 107.08899 | 32175 ft | 441 kts | 243° |
| 2026-04-28 12:12 | 27.48500 | 107.02838 | 32163 ft | 442 kts | 243° |
| 2026-04-28 12:13 | 27.45632 | 106.96693 | 32153 ft | 444 kts | 243° |
| 2026-04-28 12:13 | 27.42764 | 106.90539 | 32160 ft | 443 kts | 243° |
| 2026-04-28 12:14 | 27.39897 | 106.84390 | 32158 ft | 444 kts | 243° |
| 2026-04-28 12:14 | 27.37006 | 106.78202 | 32156 ft | 444 kts | 243° |
| 2026-04-28 12:15 | 27.34124 | 106.72051 | 32167 ft | 445 kts | 243° |
| 2026-04-28 12:15 | 27.31239 | 106.65900 | 32182 ft | 444 kts | 243° |
| 2026-04-28 12:16 | 27.28382 | 106.59817 | 32173 ft | 442 kts | 243° |
| 2026-04-28 12:16 | 27.25511 | 106.53712 | 32177 ft | 442 kts | 243° |
| 2026-04-28 12:17 | 27.22636 | 106.47607 | 32176 ft | 442 kts | 243° |
| 2026-04-28 12:17 | 27.19755 | 106.41508 | 32169 ft | 442 kts | 243° |
| 2026-04-28 12:18 | 27.16877 | 106.35415 | 32170 ft | 442 kts | 242° |